Terminal Aerodrome Forecast
Issued by NWS

Home | Current Version | Previous Version | Text Only | Print | Product List | Glossary On
Versions: 1 2 3 4 5 6 7 8 9 10 11 12 13
000
FTUS45 KVEF 031120
TAFEED
TAF
KEED 031120Z 0312/0412 25007KT P6SM BKN250
     FM031500 17008KT P6SM SCT250
     FM032100 19010G15KT P6SM FEW250
     FM040300 22014G22KT P6SM SKC
     FM040700 22007KT P6SM SKC=

USA.gov is the U.S. government's official web portal to all federal, state and local government web resources and services.